createdAt,value
2024-02-19T00:00:19.390Z,7.30
2024-02-19T00:05:21.355Z,7.20
2024-02-19T00:10:23.400Z,7.20
2024-02-19T00:15:25.377Z,7.20
2024-02-19T00:20:27.348Z,7.30
2024-02-19T00:25:30.552Z,7.30
2024-02-19T00:30:32.440Z,7.40
2024-02-19T00:35:34.381Z,7.50
2024-02-19T00:40:36.273Z,7.50
2024-02-19T00:45:38.293Z,7.50
2024-02-19T00:50:40.259Z,7.50
2024-02-19T00:55:42.221Z,7.60
2024-02-19T01:00:44.191Z,7.60
2024-02-19T01:05:46.223Z,7.60
2024-02-19T01:10:48.164Z,7.50
2024-02-19T01:15:50.144Z,7.50
2024-02-19T01:20:52.214Z,7.50
2024-02-19T01:25:54.083Z,7.50
2024-02-19T01:30:56.502Z,7.50
2024-02-19T01:35:58.396Z,7.50
2024-02-19T01:41:00.285Z,7.50
2024-02-19T01:46:02.509Z,7.50
2024-02-19T01:51:04.624Z,7.50
2024-02-19T01:56:07.115Z,7.50
2024-02-19T02:01:09.260Z,7.50
2024-02-19T02:06:11.507Z,7.50
2024-02-19T02:11:13.651Z,7.50
2024-02-19T02:16:27.191Z,7.50
2024-02-19T02:21:29.345Z,7.50
2024-02-19T02:26:31.797Z,7.50
2024-02-19T02:31:34.663Z,7.50
2024-02-19T02:36:36.613Z,7.50
2024-02-19T02:41:38.512Z,7.50
2024-02-19T02:46:40.498Z,7.50
2024-02-19T02:51:42.430Z,7.60
2024-02-19T02:56:44.618Z,7.60
2024-02-19T03:01:46.694Z,7.60
2024-02-19T03:06:48.826Z,7.60
2024-02-19T03:11:51.057Z,7.60
2024-02-19T03:16:52.951Z,7.60
2024-02-19T03:21:56.322Z,7.60
2024-02-19T03:27:03.077Z,7.60
2024-02-19T03:32:05.269Z,7.60
2024-02-19T03:37:07.335Z,7.60
2024-02-19T03:42:09.399Z,7.50
2024-02-19T03:47:11.531Z,7.50
2024-02-19T03:52:13.523Z,7.50
2024-02-19T03:57:15.627Z,7.60
2024-02-19T04:02:17.671Z,7.50
2024-02-19T04:07:19.632Z,7.50
2024-02-19T04:12:21.633Z,7.40
2024-02-19T04:17:23.586Z,7.50
2024-02-19T04:22:25.774Z,7.40
2024-02-19T04:27:27.692Z,7.40
2024-02-19T04:32:29.756Z,7.40
2024-02-19T04:37:32.259Z,7.40
2024-02-19T04:42:34.370Z,7.40
2024-02-19T04:47:36.545Z,7.40
2024-02-19T04:52:38.589Z,7.40
2024-02-19T04:57:40.593Z,7.30
2024-02-19T05:02:42.572Z,7.30
2024-02-19T05:07:44.477Z,7.30
2024-02-19T05:12:46.389Z,7.40
2024-02-19T05:17:48.876Z,7.40
2024-02-19T05:22:51.852Z,7.30
2024-02-19T05:27:54.019Z,7.30
2024-02-19T05:32:56.014Z,7.30
2024-02-19T05:37:58.000Z,7.30
2024-02-19T05:42:59.951Z,7.40
2024-02-19T05:48:02.068Z,7.40
2024-02-19T05:53:04.287Z,7.40
2024-02-19T05:58:06.241Z,7.40
2024-02-19T06:03:08.232Z,7.40
2024-02-19T06:08:10.170Z,7.50
2024-02-19T06:13:16.102Z,7.40
2024-02-19T06:18:18.349Z,7.40
2024-02-19T06:23:20.408Z,7.40
2024-02-19T06:28:22.402Z,7.40
2024-02-19T06:33:24.494Z,7.50
2024-02-19T06:38:26.438Z,7.50
2024-02-19T06:43:28.451Z,7.40
2024-02-19T06:48:30.682Z,7.40
2024-02-19T06:53:32.611Z,7.30
2024-02-19T06:58:34.589Z,7.40
2024-02-19T07:03:36.563Z,7.40
2024-02-19T07:08:38.884Z,7.40
2024-02-19T07:13:40.823Z,7.40
2024-02-19T07:18:42.846Z,7.40
2024-02-19T07:23:44.928Z,7.40
2024-02-19T07:28:46.905Z,7.40
2024-02-19T07:33:49.996Z,7.30
2024-02-19T07:38:52.084Z,7.40
2024-02-19T07:43:53.999Z,7.30
2024-02-19T07:48:56.199Z,7.40
2024-02-19T07:53:59.692Z,7.30
2024-02-19T07:59:01.588Z,7.40
2024-02-19T08:04:03.652Z,7.40
2024-02-19T08:09:07.115Z,7.40
2024-02-19T08:14:09.170Z,7.40
2024-02-19T08:19:11.186Z,7.40
2024-02-19T08:24:13.951Z,7.40
2024-02-19T08:29:24.354Z,7.40
2024-02-19T08:34:27.083Z,7.50
2024-02-19T08:39:29.000Z,7.50
2024-02-19T08:44:30.928Z,7.50
2024-02-19T08:49:34.216Z,7.50
2024-02-19T08:54:37.768Z,7.50
2024-02-19T08:59:45.692Z,7.50
2024-02-19T09:04:48.463Z,7.60
2024-02-19T09:09:51.268Z,7.60
2024-02-19T09:14:53.599Z,7.60
2024-02-19T09:19:55.798Z,7.70
2024-02-19T09:24:57.871Z,7.70
2024-02-19T09:29:59.796Z,7.70
2024-02-19T09:35:06.704Z,7.70
2024-02-19T09:40:10.058Z,7.70
2024-02-19T09:45:12.310Z,7.70
2024-02-19T09:50:15.186Z,7.70
2024-02-19T09:55:18.567Z,7.70
2024-02-19T10:00:22.889Z,7.70
2024-02-19T10:05:25.046Z,7.80
2024-02-19T10:10:29.455Z,7.90
2024-02-19T10:15:31.397Z,8.00
2024-02-19T10:20:34.080Z,8.10
2024-02-19T10:25:35.949Z,8.10
2024-02-19T10:30:38.181Z,8.10
2024-02-19T10:35:40.067Z,8.20
2024-02-19T10:40:41.966Z,8.20
2024-02-19T10:45:44.141Z,8.30
2024-02-19T10:50:52.246Z,8.40
2024-02-19T10:56:16.836Z,8.60
2024-02-19T11:01:20.815Z,8.90
2024-02-19T11:06:25.027Z,8.90
2024-02-19T11:11:27.064Z,8.90
2024-02-19T11:16:29.724Z,8.70
2024-02-19T11:21:31.882Z,8.50
2024-02-19T11:26:33.764Z,8.50
2024-02-19T11:31:36.712Z,8.50
2024-02-19T11:36:38.653Z,8.40
2024-02-19T11:41:44.893Z,8.30
2024-02-19T11:46:47.232Z,8.20
2024-02-19T11:51:57.212Z,8.20
2024-02-19T11:57:08.770Z,8.20
2024-02-19T12:02:11.417Z,8.20
2024-02-19T12:07:13.605Z,8.10
2024-02-19T12:12:18.517Z,8.10
2024-02-19T12:17:23.297Z,8.00
2024-02-19T12:22:25.418Z,7.90
2024-02-19T12:27:27.393Z,7.70
2024-02-19T12:32:30.231Z,7.70
2024-02-19T12:37:32.336Z,7.60
2024-02-19T12:42:34.318Z,7.60
2024-02-19T12:47:37.269Z,7.60
2024-02-19T12:52:39.515Z,7.60
2024-02-19T12:57:41.986Z,7.50
2024-02-19T13:02:44.074Z,7.60
2024-02-19T13:07:49.059Z,7.60
2024-02-19T13:12:51.827Z,7.60
2024-02-19T13:17:53.949Z,7.60
2024-02-19T13:22:55.938Z,7.70
2024-02-19T13:27:57.931Z,7.60
2024-02-19T13:33:00.279Z,7.60
2024-02-19T13:38:04.130Z,7.70
2024-02-19T13:43:06.519Z,7.70
2024-02-19T13:48:08.644Z,7.80
2024-02-19T13:53:12.206Z,7.80
2024-02-19T13:58:14.270Z,7.80
2024-02-19T14:03:16.424Z,7.90
2024-02-19T14:08:19.689Z,7.90
2024-02-19T14:13:21.651Z,7.90
2024-02-19T14:23:28.368Z,7.90
2024-02-19T14:28:30.322Z,7.90
2024-02-19T14:33:32.306Z,7.80
2024-02-19T14:38:34.342Z,7.80
2024-02-19T14:43:36.666Z,7.80
2024-02-19T14:48:39.673Z,7.70
2024-02-19T14:53:41.895Z,7.80
2024-02-19T14:58:43.747Z,7.70
2024-02-19T15:03:45.692Z,7.70
2024-02-19T15:08:47.697Z,7.70
2024-02-19T15:13:49.827Z,7.70
2024-02-19T15:18:51.943Z,7.60
2024-02-19T15:23:54.958Z,7.60
2024-02-19T15:28:57.718Z,7.60
2024-02-19T15:33:59.981Z,7.60
2024-02-19T15:39:02.115Z,7.50
2024-02-19T15:44:05.458Z,7.40
2024-02-19T15:49:08.290Z,7.30
2024-02-19T15:54:11.333Z,7.30
2024-02-19T15:59:13.276Z,7.20
2024-02-19T16:04:15.396Z,7.20
2024-02-19T16:09:17.422Z,7.20
2024-02-19T16:14:19.429Z,7.20
2024-02-19T16:19:23.086Z,7.20
2024-02-19T16:24:25.227Z,7.10
2024-02-19T16:29:29.818Z,7.10
2024-02-19T16:34:31.850Z,7.10
2024-02-19T16:39:33.827Z,7.00
2024-02-19T16:44:36.192Z,7.00
2024-02-19T16:49:38.346Z,7.00
2024-02-19T16:54:40.447Z,6.90
2024-02-19T16:59:42.603Z,6.80
2024-02-19T17:04:46.961Z,6.80
2024-02-19T17:09:48.979Z,6.80
2024-02-19T17:14:51.345Z,6.80
2024-02-19T17:19:55.060Z,6.80
2024-02-19T17:24:57.317Z,6.70
2024-02-19T17:29:59.242Z,6.70
2024-02-19T17:35:01.256Z,6.70
2024-02-19T17:40:03.556Z,6.60
2024-02-19T17:45:07.518Z,6.60
2024-02-19T17:50:10.624Z,6.60
2024-02-19T17:55:12.877Z,6.60
2024-02-19T18:00:16.109Z,6.60
2024-02-19T18:05:18.565Z,6.50
2024-02-19T18:10:20.584Z,6.50
2024-02-19T18:15:25.043Z,6.50
2024-02-19T18:20:27.557Z,6.50
2024-02-19T18:25:29.788Z,6.50
2024-02-19T18:30:31.916Z,6.50
2024-02-19T18:35:35.191Z,6.50
2024-02-19T18:40:38.300Z,6.50
2024-02-19T18:45:42.553Z,6.50
2024-02-19T18:50:44.558Z,6.50
2024-02-19T18:56:01.726Z,6.40
2024-02-19T19:01:05.591Z,6.40
2024-02-19T19:06:07.910Z,6.40
2024-02-19T19:11:09.912Z,6.30
2024-02-19T19:16:12.690Z,6.40
2024-02-19T19:21:14.842Z,6.40
2024-02-19T19:26:16.857Z,6.30
2024-02-19T19:31:18.762Z,6.40
2024-02-19T19:36:21.267Z,6.30
2024-02-19T19:41:23.213Z,6.40
2024-02-19T19:46:25.205Z,6.30
2024-02-19T19:51:27.217Z,6.40
2024-02-19T19:56:31.112Z,6.40
2024-02-19T20:01:37.203Z,6.40
2024-02-19T20:06:39.851Z,6.30
2024-02-19T20:11:41.844Z,6.30
2024-02-19T20:16:43.833Z,6.30
2024-02-19T20:21:45.903Z,6.30
2024-02-19T20:26:47.830Z,6.30
2024-02-19T20:31:49.709Z,6.20
2024-02-19T20:36:51.671Z,6.20
2024-02-19T20:41:53.779Z,6.30
2024-02-19T20:46:56.837Z,6.30
2024-02-19T20:51:58.964Z,6.30
2024-02-19T20:57:01.525Z,6.30
2024-02-19T21:02:03.732Z,6.20
2024-02-19T21:07:06.031Z,6.30
2024-02-19T21:12:08.544Z,6.30
2024-02-19T21:17:10.517Z,6.20
2024-02-19T21:22:12.830Z,6.20
2024-02-19T21:27:16.047Z,6.20
2024-02-19T21:32:18.223Z,6.20
2024-02-19T21:37:20.167Z,6.20
2024-02-19T21:42:25.838Z,6.20
2024-02-19T21:47:28.066Z,6.20
2024-02-19T21:52:30.104Z,6.20
2024-02-19T21:57:39.241Z,6.20
2024-02-19T22:02:41.386Z,6.20
2024-02-19T22:07:44.255Z,6.20
2024-02-19T22:12:46.338Z,6.20
2024-02-19T22:17:48.378Z,6.20
2024-02-19T22:22:50.505Z,6.20
2024-02-19T22:27:55.087Z,6.20
2024-02-19T22:32:57.218Z,6.20
2024-02-19T22:38:00.801Z,6.30
2024-02-19T22:43:10.522Z,6.20
2024-02-19T22:48:13.066Z,6.20
2024-02-19T22:53:15.678Z,6.20
2024-02-19T22:58:30.806Z,6.20
2024-02-19T23:03:35.364Z,6.20
2024-02-19T23:08:37.383Z,6.20
2024-02-19T23:13:39.283Z,6.20
2024-02-19T23:18:41.262Z,6.20
2024-02-19T23:23:43.733Z,6.20
2024-02-19T23:28:45.586Z,6.10
2024-02-19T23:33:47.876Z,6.10
2024-02-19T23:38:49.878Z,6.10
2024-02-19T23:43:52.999Z,6.20
2024-02-19T23:48:56.519Z,6.20
2024-02-19T23:53:59.233Z,6.20
2024-02-19T23:59:01.440Z,6.20
